createdAt,value
2023-01-03T00:01:14.243Z,4.48
2023-01-03T00:06:14.231Z,4.96
2023-01-03T00:11:14.221Z,5.72
2023-01-03T00:16:14.219Z,6.27
2023-01-03T00:21:14.214Z,5.64
2023-01-03T00:26:14.250Z,6.23
2023-01-03T00:31:14.279Z,5.17
2023-01-03T00:36:14.223Z,4.55
2023-01-03T00:41:14.238Z,5.04
2023-01-03T00:46:14.279Z,6.15
2023-01-03T00:51:14.227Z,5.99
2023-01-03T00:56:14.259Z,6.06
2023-01-03T01:01:14.414Z,5.81
2023-01-03T01:06:14.232Z,5.86
2023-01-03T01:11:14.229Z,5.24
2023-01-03T01:16:14.307Z,5.49
2023-01-03T01:21:14.252Z,5.49
2023-01-03T01:26:14.284Z,5.32
2023-01-03T01:31:14.307Z,4.74
2023-01-03T01:36:14.244Z,5.73
2023-01-03T01:41:14.266Z,5.9
2023-01-03T01:46:14.336Z,6.01
2023-01-03T01:51:14.256Z,5.48
2023-01-03T01:56:14.257Z,6.08
2023-01-03T02:01:14.335Z,5.67
2023-01-03T02:06:14.293Z,6.52
2023-01-03T02:11:14.290Z,5.72
2023-01-03T02:16:14.371Z,6.16
2023-01-03T02:21:18.321Z,5.7
2023-01-03T02:26:14.300Z,6.6
2023-01-03T02:31:14.304Z,6.6
2023-01-03T02:36:14.271Z,7.22
2023-01-03T02:41:14.294Z,8.45
2023-01-03T02:46:14.314Z,6.77
2023-01-03T02:51:14.268Z,7.59
2023-01-03T02:56:14.305Z,7.32
2023-01-03T03:01:14.347Z,6.62
2023-01-03T03:06:14.319Z,6.84
2023-01-03T03:11:14.295Z,6.85
2023-01-03T03:16:14.349Z,6.95
2023-01-03T03:21:14.284Z,7.66
2023-01-03T03:26:14.313Z,8.88
2023-01-03T03:31:14.398Z,7.97
2023-01-03T03:36:14.294Z,8.61
2023-01-03T03:41:14.312Z,7.66
2023-01-03T03:46:14.327Z,8.97
2023-01-03T03:51:14.319Z,7.45
2023-01-03T03:56:14.296Z,7.49
2023-01-03T04:01:14.366Z,7.58
2023-01-03T04:06:14.340Z,8.08
2023-01-03T04:11:14.347Z,8.97
2023-01-03T04:16:14.330Z,9.08
2023-01-03T04:21:18.854Z,7.39
2023-01-03T04:26:14.318Z,8.85
2023-01-03T04:31:14.366Z,8.01
2023-01-03T04:36:14.349Z,8.26
2023-01-03T04:41:14.380Z,7.8
2023-01-03T04:46:14.384Z,7.28
2023-01-03T04:51:14.341Z,7.06
2023-01-03T04:56:14.327Z,6.79
2023-01-03T05:01:14.470Z,6.38
2023-01-03T05:06:14.360Z,6.25
2023-01-03T05:11:14.352Z,6.12
2023-01-03T05:16:14.461Z,6.08
2023-01-03T05:21:14.365Z,6
2023-01-03T05:26:14.345Z,6.26
2023-01-03T05:31:14.373Z,6.35
2023-01-03T05:36:16.380Z,6.36
2023-01-03T05:41:14.396Z,6.5
2023-01-03T05:46:14.392Z,6.87
2023-01-03T05:51:14.379Z,6.95
2023-01-03T05:56:14.381Z,6.76
2023-01-03T06:01:14.380Z,6.64
2023-01-03T06:06:14.355Z,6.52
2023-01-03T06:11:14.385Z,6.33
2023-01-03T06:16:14.399Z,6.32
2023-01-03T06:21:14.386Z,6.4
2023-01-03T06:26:14.360Z,6.46
2023-01-03T06:31:14.433Z,6.56
2023-01-03T06:36:14.398Z,6.34
2023-01-03T06:41:14.401Z,6.57
2023-01-03T06:46:14.406Z,6.66
2023-01-03T06:51:14.378Z,6.59
2023-01-03T06:56:14.392Z,6.46
2023-01-03T07:01:14.470Z,6.42
2023-01-03T07:06:14.399Z,6.4
2023-01-03T07:11:14.402Z,6.76
2023-01-03T07:16:14.400Z,6.71
2023-01-03T07:21:14.376Z,6.47
2023-01-03T07:26:14.384Z,6.61
2023-01-03T07:31:14.473Z,6.56
2023-01-03T07:36:14.397Z,8.05
2023-01-03T07:41:14.438Z,7.17
2023-01-03T07:46:14.416Z,6.46
2023-01-03T07:51:14.386Z,6.29
2023-01-03T07:56:14.424Z,6.81
2023-01-03T08:01:14.474Z,5.92
2023-01-03T08:06:14.401Z,7.79
2023-01-03T08:11:14.402Z,6.49
2023-01-03T08:16:14.430Z,6.08
2023-01-03T08:21:14.413Z,5.81
2023-01-03T08:26:14.443Z,5.84
2023-01-03T08:31:14.492Z,6.19
2023-01-03T08:36:14.450Z,6.4
2023-01-03T08:41:14.436Z,6.34
2023-01-03T08:46:14.445Z,7.57
2023-01-03T08:51:14.412Z,7.98
2023-01-03T08:56:14.454Z,7.13
2023-01-03T09:01:14.563Z,7.93
2023-01-03T09:06:14.449Z,7.03
2023-01-03T09:11:14.462Z,6.22
2023-01-03T09:16:14.465Z,6.48
2023-01-03T09:21:14.475Z,5.97
2023-01-03T09:26:14.434Z,6.22
2023-01-03T09:31:14.517Z,6.41
2023-01-03T09:36:14.435Z,6.21
2023-01-03T09:41:14.457Z,6.59
2023-01-03T09:46:14.488Z,6.4
2023-01-03T09:51:20.921Z,5.67
2023-01-03T09:56:14.468Z,5.8
2023-01-03T10:01:14.599Z,6.08
2023-01-03T10:06:14.478Z,5.66
2023-01-03T10:11:14.455Z,5.41
2023-01-03T10:16:14.505Z,4.6
2023-01-03T10:21:14.486Z,4.48
2023-01-03T10:26:14.517Z,3.84
2023-01-03T10:31:14.537Z,3.56
2023-01-03T10:36:14.468Z,3.68
2023-01-03T10:41:14.493Z,3.6
2023-01-03T10:46:14.530Z,3.87
2023-01-03T10:51:14.469Z,5.82
2023-01-03T10:56:14.506Z,3.79
2023-01-03T11:01:14.581Z,3.93
2023-01-03T11:06:14.482Z,4.25
2023-01-03T11:11:14.506Z,5.39
2023-01-03T11:16:14.509Z,3.53
2023-01-03T11:21:14.512Z,2.92
2023-01-03T11:26:14.540Z,2.81
2023-01-03T11:31:14.538Z,2.66
2023-01-03T11:36:14.503Z,2.82
2023-01-03T11:41:14.545Z,3.79
2023-01-03T11:46:14.569Z,4.48
2023-01-03T11:51:14.535Z,3.14
2023-01-03T11:56:14.509Z,3.13
2023-01-03T12:01:14.509Z,3.39
2023-01-03T12:06:14.526Z,3.82
2023-01-03T12:11:14.520Z,5.01
2023-01-03T12:16:14.588Z,4.38
2023-01-03T12:21:14.538Z,5.3
2023-01-03T12:26:14.535Z,5.16
2023-01-03T12:31:14.551Z,5.48
2023-01-03T12:36:14.543Z,4.51
2023-01-03T12:41:14.531Z,7.26
2023-01-03T12:46:14.618Z,9.38
2023-01-03T12:51:14.524Z,6.11
2023-01-03T12:56:14.523Z,16.71
2023-01-03T13:01:14.750Z,12.93
2023-01-03T13:06:14.546Z,8.18
2023-01-03T13:11:14.532Z,4.74
2023-01-03T13:16:14.591Z,8.28
2023-01-03T13:21:14.555Z,4.73
2023-01-03T13:26:14.572Z,4.37
2023-01-03T13:31:14.798Z,4.32
2023-01-03T13:36:14.533Z,5.27
2023-01-03T13:41:18.999Z,9.16
2023-01-03T13:46:14.591Z,15.47
2023-01-03T13:51:14.551Z,28.12
2023-01-03T13:56:14.557Z,9.34
2023-01-03T14:01:14.718Z,7.6
2023-01-03T14:06:14.584Z,6.87
2023-01-03T14:11:14.583Z,8.67
2023-01-03T14:16:14.611Z,9.42
2023-01-03T14:21:17.674Z,14.16
2023-01-03T14:26:14.592Z,12.6
2023-01-03T14:31:14.653Z,12.36
2023-01-03T14:36:14.608Z,11.66
2023-01-03T14:41:14.580Z,15.23
2023-01-03T14:46:14.647Z,29.75
2023-01-03T14:51:14.577Z,35.26
2023-01-03T14:56:14.576Z,16.77
2023-01-03T15:01:14.782Z,16.53
2023-01-03T15:06:14.627Z,15.5
2023-01-03T15:11:14.582Z,10.49
2023-01-03T15:16:14.639Z,7.6
2023-01-03T15:21:14.606Z,8.17
2023-01-03T15:26:14.623Z,30.49
2023-01-03T15:31:14.701Z,31.71
2023-01-03T15:36:18.656Z,18.09
2023-01-03T15:41:14.635Z,14.78
2023-01-03T15:46:14.728Z,16.4
2023-01-03T15:51:14.600Z,21.46
2023-01-03T15:56:14.634Z,27.09
2023-01-03T16:01:14.739Z,19.53
2023-01-03T16:06:14.628Z,15.17
2023-01-03T16:11:19.378Z,13.25
2023-01-03T16:16:14.686Z,18.43
2023-01-03T16:21:14.605Z,26.3
2023-01-03T16:26:14.617Z,22.96
2023-01-03T16:31:14.608Z,19.64
2023-01-03T16:36:14.639Z,18.47
2023-01-03T16:41:14.630Z,31.6
2023-01-03T16:46:14.650Z,48.01
2023-01-03T16:51:14.621Z,51.45
2023-01-03T16:56:14.616Z,33.36
2023-01-03T17:01:14.777Z,27.16
2023-01-03T17:06:14.663Z,32.65
2023-01-03T17:11:14.658Z,26.02
2023-01-03T17:16:14.725Z,22.06
2023-01-03T17:21:14.634Z,21.8
2023-01-03T17:26:14.637Z,22.35
2023-01-03T17:31:14.714Z,23.48
2023-01-03T17:36:14.667Z,26.36
2023-01-03T17:41:14.673Z,26.16
2023-01-03T17:46:20.868Z,29.29
2023-01-03T17:51:14.645Z,34.87
2023-01-03T17:56:14.636Z,36.99
2023-01-03T18:01:14.788Z,36.58
2023-01-03T18:06:14.685Z,30.95
2023-01-03T18:11:14.680Z,31.57
2023-01-03T18:16:14.722Z,30.19
2023-01-03T18:21:14.662Z,24.27
2023-01-03T18:26:14.669Z,26.72
2023-01-03T18:31:14.740Z,27.24
2023-01-03T18:36:14.676Z,27.29
2023-01-03T18:41:14.680Z,26.46
2023-01-03T18:46:14.725Z,26.19
2023-01-03T18:51:14.704Z,27.24
2023-01-03T18:56:14.663Z,26.19
2023-01-03T19:01:14.775Z,25.44
2023-01-03T19:06:14.694Z,22.98
2023-01-03T19:11:14.665Z,19.24
2023-01-03T19:16:14.704Z,18.11
2023-01-03T19:21:14.695Z,14.92
2023-01-03T19:26:14.711Z,11.22
2023-01-03T19:31:14.754Z,9.9
2023-01-03T19:36:14.681Z,8.39
2023-01-03T19:41:14.707Z,7.69
2023-01-03T19:46:14.729Z,7.81
2023-01-03T19:51:14.722Z,6.78
2023-01-03T19:56:14.713Z,6.78
2023-01-03T20:01:14.718Z,6.41
2023-01-03T20:06:14.694Z,6.42
2023-01-03T20:11:14.729Z,6.39
2023-01-03T20:16:14.770Z,7.46
2023-01-03T20:21:19.892Z,9.66
2023-01-03T20:26:14.698Z,8.52
2023-01-03T20:31:20.033Z,17.16
2023-01-03T20:36:21.978Z,13.48
2023-01-03T20:41:14.728Z,10.96
2023-01-03T20:46:14.745Z,11.97
2023-01-03T20:51:14.710Z,11.09
2023-01-03T20:56:14.741Z,10.02
2023-01-03T21:01:14.851Z,8.92
2023-01-03T21:06:14.708Z,8.14
2023-01-03T21:11:14.750Z,8.08
2023-01-03T21:16:14.815Z,8.59
2023-01-03T21:21:14.717Z,8.32
2023-01-03T21:26:14.717Z,8.1
2023-01-03T21:31:14.768Z,8.19
2023-01-03T21:36:19.319Z,8.09
2023-01-03T21:41:14.781Z,8.39
2023-01-03T21:46:14.784Z,7.96
2023-01-03T21:51:17.463Z,8.09
2023-01-03T21:56:14.763Z,8.66
2023-01-03T22:01:14.825Z,8.4
2023-01-03T22:06:14.743Z,8.78
2023-01-03T22:11:14.771Z,9.11
2023-01-03T22:16:14.834Z,9.05
2023-01-03T22:21:14.773Z,9.43
2023-01-03T22:36:14.764Z,8.89
2023-01-03T22:41:14.772Z,9.41
2023-01-03T22:46:14.786Z,9.5
2023-01-03T22:51:14.779Z,9.95
2023-01-03T22:56:14.777Z,11.24
2023-01-03T23:01:14.892Z,10.18
2023-01-03T23:06:14.784Z,9.26
2023-01-03T23:11:14.798Z,9.19
2023-01-03T23:16:14.827Z,8.62
2023-01-03T23:21:14.767Z,9.08
2023-01-03T23:26:14.796Z,9.25
2023-01-03T23:31:14.891Z,9.29
2023-01-03T23:36:14.776Z,9.62
2023-01-03T23:41:14.817Z,9.76
2023-01-03T23:46:14.892Z,10.51
2023-01-03T23:51:14.811Z,10.38
2023-01-03T23:56:14.766Z,10.94
